sensor_id;sensor_type;location;lat;lon;timestamp;pressure;altitude;pressure_sealevel;temperature;humidity
44663;BME280;30381;52.754;18.258;2023-04-07T05:09:47;100842.58;;;2.93;100.00
44663;BME280;30381;52.754;18.258;2023-04-07T06:19:55;100843.94;;;3.67;100.00
44663;BME280;30381;52.754;18.258;2023-04-07T08:43:38;100860.76;;;5.40;100.00
44663;BME280;30381;52.754;18.258;2023-04-07T08:49:49;100855.73;;;5.55;100.00
44663;BME280;30381;52.754;18.258;2023-04-07T08:56:50;100854.27;;;5.65;100.00
44663;BME280;30381;52.754;18.258;2023-04-07T08:59:20;100852.84;;;5.70;100.00
44663;BME280;30381;52.754;18.258;2023-04-07T09:02:34;100850.73;;;5.76;100.00
44663;BME280;30381;52.754;18.258;2023-04-07T09:05:27;100847.23;;;5.79;100.00
44663;BME280;30381;52.754;18.258;2023-04-07T09:08:18;100846.46;;;5.87;100.00
44663;BME280;30381;52.754;18.258;2023-04-07T09:11:22;100845.77;;;5.98;100.00
44663;BME280;30381;52.754;18.258;2023-04-07T09:49:54;100813.14;;;7.46;100.00
44663;BME280;30381;52.754;18.258;2023-04-07T09:53:00;100811.27;;;7.64;100.00
44663;BME280;30381;52.754;18.258;2023-04-07T09:56:27;100812.52;;;7.74;100.00
44663;BME280;30381;52.754;18.258;2023-04-07T09:59:24;100804.68;;;7.76;100.00
44663;BME280;30381;52.754;18.258;2023-04-07T10:02:17;100804.20;;;7.91;100.00
44663;BME280;30381;52.754;18.258;2023-04-07T10:05:31;100803.04;;;8.18;100.00
44663;BME280;30381;52.754;18.258;2023-04-07T10:08:18;100798.95;;;8.34;100.00
44663;BME280;30381;52.754;18.258;2023-04-07T10:10:47;100801.13;;;8.46;100.00
44663;BME280;30381;52.754;18.258;2023-04-07T10:13:21;100796.90;;;8.50;100.00
44663;BME280;30381;52.754;18.258;2023-04-07T10:15:51;100792.22;;;8.55;100.00
44663;BME280;30381;52.754;18.258;2023-04-07T10:18:27;100791.38;;;8.62;100.00
44663;BME280;30381;52.754;18.258;2023-04-07T10:21:06;100794.63;;;8.87;100.00
44663;BME280;30381;52.754;18.258;2023-04-07T10:24:03;100798.64;;;9.04;100.00
44663;BME280;30381;52.754;18.258;2023-04-07T10:27:05;100796.44;;;9.08;100.00
44663;BME280;30381;52.754;18.258;2023-04-07T10:29:51;100788.02;;;9.13;100.00
44663;BME280;30381;52.754;18.258;2023-04-07T10:32:52;100789.17;;;9.10;100.00
44663;BME280;30381;52.754;18.258;2023-04-07T10:39:27;100784.92;;;8.72;100.00
44663;BME280;30381;52.754;18.258;2023-04-07T10:41:57;100789.52;;;8.64;100.00
44663;BME280;30381;52.754;18.258;2023-04-07T10:44:46;100788.02;;;8.58;100.00
44663;BME280;30381;52.754;18.258;2023-04-07T10:47:15;100787.00;;;8.61;100.00
44663;BME280;30381;52.754;18.258;2023-04-07T10:53:22;100785.36;;;8.69;100.00
44663;BME280;30381;52.754;18.258;2023-04-07T10:55:53;100781.23;;;8.60;100.00
44663;BME280;30381;52.754;18.258;2023-04-07T10:58:25;100783.91;;;8.63;100.00
44663;BME280;30381;52.754;18.258;2023-04-07T11:03:39;100784.27;;;8.78;100.00
44663;BME280;30381;52.754;18.258;2023-04-07T11:06:11;100789.05;;;8.81;100.00
44663;BME280;30381;52.754;18.258;2023-04-07T11:08:43;100788.02;;;8.69;100.00
44663;BME280;30381;52.754;18.258;2023-04-07T11:11:19;100787.04;;;8.56;100.00
44663;BME280;30381;52.754;18.258;2023-04-07T11:13:53;100787.52;;;8.58;100.00
44663;BME280;30381;52.754;18.258;2023-04-07T11:16:37;100787.84;;;8.66;100.00
44663;BME280;30381;52.754;18.258;2023-04-07T11:19:05;100788.95;;;8.77;100.00
44663;BME280;30381;52.754;18.258;2023-04-07T11:21:36;100788.43;;;8.94;100.00
44663;BME280;30381;52.754;18.258;2023-04-07T11:24:03;100789.59;;;9.04;100.00
44663;BME280;30381;52.754;18.258;2023-04-07T11:26:40;100794.90;;;9.11;100.00
44663;BME280;30381;52.754;18.258;2023-04-07T11:29:08;100794.39;;;9.10;100.00
44663;BME280;30381;52.754;18.258;2023-04-07T11:31:38;100787.77;;;9.08;100.00
44663;BME280;30381;52.754;18.258;2023-04-07T11:34:06;100789.95;;;9.09;100.00
44663;BME280;30381;52.754;18.258;2023-04-07T11:36:38;100786.98;;;9.17;100.00
44663;BME280;30381;52.754;18.258;2023-04-07T11:39:20;100793.79;;;9.13;100.00
44663;BME280;30381;52.754;18.258;2023-04-07T11:42:00;100796.68;;;9.00;100.00
44663;BME280;30381;52.754;18.258;2023-04-07T11:44:28;100793.26;;;8.94;100.00
44663;BME280;30381;52.754;18.258;2023-04-07T11:46:57;100796.10;;;8.86;100.00
44663;BME280;30381;52.754;18.258;2023-04-07T11:49:27;100788.88;;;8.76;100.00
44663;BME280;30381;52.754;18.258;2023-04-07T11:52:01;100792.13;;;8.68;100.00
44663;BME280;30381;52.754;18.258;2023-04-07T11:54:42;100790.20;;;8.71;100.00
44663;BME280;30381;52.754;18.258;2023-04-07T11:57:12;100791.84;;;8.78;100.00
44663;BME280;30381;52.754;18.258;2023-04-07T11:59:40;100791.77;;;8.87;100.00
44663;BME280;30381;52.754;18.258;2023-04-07T12:02:07;100794.83;;;8.93;100.00
44663;BME280;30381;52.754;18.258;2023-04-07T12:04:55;100796.20;;;8.94;100.00
44663;BME280;30381;52.754;18.258;2023-04-07T12:07:22;100799.54;;;9.05;100.00
44663;BME280;30381;52.754;18.258;2023-04-07T12:09:50;100798.89;;;9.08;100.00
44663;BME280;30381;52.754;18.258;2023-04-07T12:12:25;100793.36;;;9.13;100.00
44663;BME280;30381;52.754;18.258;2023-04-07T12:14:58;100785.15;;;9.16;100.00
44663;BME280;30381;52.754;18.258;2023-04-07T12:17:27;100785.87;;;9.16;100.00
44663;BME280;30381;52.754;18.258;2023-04-07T12:19:54;100786.02;;;9.17;100.00
44663;BME280;30381;52.754;18.258;2023-04-07T12:22:25;100787.08;;;9.12;100.00
44663;BME280;30381;52.754;18.258;2023-04-07T12:24:53;100789.16;;;9.15;100.00
44663;BME280;30381;52.754;18.258;2023-04-07T12:27:21;100786.88;;;9.18;100.00
44663;BME280;30381;52.754;18.258;2023-04-07T12:29:48;100787.99;;;9.28;100.00
44663;BME280;30381;52.754;18.258;2023-04-07T12:32:18;100781.52;;;9.28;100.00
44663;BME280;30381;52.754;18.258;2023-04-07T12:34:45;100787.94;;;9.21;100.00
44663;BME280;30381;52.754;18.258;2023-04-07T12:37:13;100787.08;;;9.12;100.00
44663;BME280;30381;52.754;18.258;2023-04-07T12:39:49;100785.73;;;9.06;100.00
44663;BME280;30381;52.754;18.258;2023-04-07T12:42:19;100785.66;;;9.12;100.00
44663;BME280;30381;52.754;18.258;2023-04-07T12:44:46;100784.42;;;9.22;100.00
44663;BME280;30381;52.754;18.258;2023-04-07T12:47:13;100789.27;;;9.43;100.00
44663;BME280;30381;52.754;18.258;2023-04-07T12:49:40;100788.48;;;9.60;100.00
44663;BME280;30381;52.754;18.258;2023-04-07T12:52:08;100796.27;;;9.57;100.00
44663;BME280;30381;52.754;18.258;2023-04-07T12:54:35;100793.94;;;9.38;100.00
44663;BME280;30381;52.754;18.258;2023-04-07T12:57:05;100791.84;;;9.33;100.00
44663;BME280;30381;52.754;18.258;2023-04-07T12:59:34;100790.20;;;9.35;100.00
44663;BME280;30381;52.754;18.258;2023-04-07T13:02:02;100791.45;;;9.30;100.00
44663;BME280;30381;52.754;18.258;2023-04-07T13:04:29;100797.52;;;9.21;100.00
44663;BME280;30381;52.754;18.258;2023-04-07T13:06:57;100801.10;;;9.20;100.00
44663;BME280;30381;52.754;18.258;2023-04-07T13:09:25;100798.36;;;9.28;100.00
44663;BME280;30381;52.754;18.258;2023-04-07T13:11:52;100800.02;;;9.29;100.00
44663;BME280;30381;52.754;18.258;2023-04-07T13:28:49;100820.61;;;9.06;100.00
44663;BME280;30381;52.754;18.258;2023-04-07T13:31:18;100825.71;;;9.07;100.00
44663;BME280;30381;52.754;18.258;2023-04-07T13:33:48;100822.16;;;9.05;100.00
44663;BME280;30381;52.754;18.258;2023-04-07T13:36:23;100820.98;;;9.07;100.00
44663;BME280;30381;52.754;18.258;2023-04-07T13:38:59;100818.51;;;9.10;100.00
44663;BME280;30381;52.754;18.258;2023-04-07T13:41:32;100823.88;;;9.08;100.00
44663;BME280;30381;52.754;18.258;2023-04-07T13:44:00;100821.63;;;9.05;100.00
44663;BME280;30381;52.754;18.258;2023-04-07T13:47:13;100817.83;;;9.03;100.00
44663;BME280;30381;52.754;18.258;2023-04-07T13:50:26;100813.69;;;9.05;100.00
44663;BME280;30381;52.754;18.258;2023-04-07T13:53:45;100811.25;;;9.05;100.00
44663;BME280;30381;52.754;18.258;2023-04-07T13:56:29;100808.10;;;9.03;100.00
44663;BME280;30381;52.754;18.258;2023-04-07T13:58:58;100805.23;;;9.04;100.00
44663;BME280;30381;52.754;18.258;2023-04-07T14:01:28;100804.92;;;9.06;100.00
44663;BME280;30381;52.754;18.258;2023-04-07T14:03:55;100799.69;;;9.08;100.00
44663;BME280;30381;52.754;18.258;2023-04-07T14:06:23;100800.31;;;9.16;100.00
44663;BME280;30381;52.754;18.258;2023-04-07T14:08:54;100793.85;;;9.27;100.00
44663;BME280;30381;52.754;18.258;2023-04-07T14:11:23;100795.86;;;9.38;100.00
44663;BME280;30381;52.754;18.258;2023-04-07T20:06:19;101054.58;;;8.27;100.00
44663;BME280;30381;52.754;18.258;2023-04-07T20:10:18;101056.33;;;8.18;100.00
44663;BME280;30381;52.754;18.258;2023-04-07T20:53:46;101095.55;;;7.43;100.00
44663;BME280;30381;52.754;18.258;2023-04-07T23:06:51;101182.88;;;6.29;100.00
